sensor_id;sensor_type;location;lat;lon;timestamp;temperature;humidity
53904;DHT22;39812;52.430;16.936;2023-04-01T00:00:19;8.60;99.90
53904;DHT22;39812;52.430;16.936;2023-04-01T00:02:45;8.50;99.90
53904;DHT22;39812;52.430;16.936;2023-04-01T00:05:11;8.50;99.90
53904;DHT22;39812;52.430;16.936;2023-04-01T00:07:38;8.50;99.90
53904;DHT22;39812;52.430;16.936;2023-04-01T00:10:09;8.50;99.90
53904;DHT22;39812;52.430;16.936;2023-04-01T00:12:35;8.60;99.90
53904;DHT22;39812;52.430;16.936;2023-04-01T00:15:01;8.60;99.90
53904;DHT22;39812;52.430;16.936;2023-04-01T00:17:28;8.50;99.90
53904;DHT22;39812;52.430;16.936;2023-04-01T00:19:56;8.50;99.90
53904;DHT22;39812;52.430;16.936;2023-04-01T00:22:23;8.50;99.90
53904;DHT22;39812;52.430;16.936;2023-04-01T00:24:49;8.50;99.90
53904;DHT22;39812;52.430;16.936;2023-04-01T00:27:15;8.50;99.90
53904;DHT22;39812;52.430;16.936;2023-04-01T00:29:45;8.50;99.90
53904;DHT22;39812;52.430;16.936;2023-04-01T00:32:12;8.50;99.90
53904;DHT22;39812;52.430;16.936;2023-04-01T00:34:38;8.50;99.90
53904;DHT22;39812;52.430;16.936;2023-04-01T00:37:05;8.50;99.90
53904;DHT22;39812;52.430;16.936;2023-04-01T00:39:32;8.50;99.90
53904;DHT22;39812;52.430;16.936;2023-04-01T00:42:00;8.50;99.90
53904;DHT22;39812;52.430;16.936;2023-04-01T00:44:31;8.50;99.90
53904;DHT22;39812;52.430;16.936;2023-04-01T00:46:58;8.50;99.90
53904;DHT22;39812;52.430;16.936;2023-04-01T00:49:28;8.50;99.90
53904;DHT22;39812;52.430;16.936;2023-04-01T00:51:56;8.50;99.90
53904;DHT22;39812;52.430;16.936;2023-04-01T00:54:25;8.50;99.90
53904;DHT22;39812;52.430;16.936;2023-04-01T00:57:02;8.50;99.90
53904;DHT22;39812;52.430;16.936;2023-04-01T00:59:37;8.50;99.90
53904;DHT22;39812;52.430;16.936;2023-04-01T01:02:07;8.50;99.90
53904;DHT22;39812;52.430;16.936;2023-04-01T01:04:35;8.60;99.90
53904;DHT22;39812;52.430;16.936;2023-04-01T01:31:53;8.50;99.90
53904;DHT22;39812;52.430;16.936;2023-04-01T01:37:14;8.50;99.90
53904;DHT22;39812;52.430;16.936;2023-04-01T01:39:42;8.50;99.90
53904;DHT22;39812;52.430;16.936;2023-04-01T01:42:10;8.50;99.90
53904;DHT22;39812;52.430;16.936;2023-04-01T01:44:38;8.50;99.90
53904;DHT22;39812;52.430;16.936;2023-04-01T01:47:05;8.60;99.90
53904;DHT22;39812;52.430;16.936;2023-04-01T01:49:32;8.60;99.90
53904;DHT22;39812;52.430;16.936;2023-04-01T01:51:59;8.60;99.90
53904;DHT22;39812;52.430;16.936;2023-04-01T01:54:25;8.60;99.90
53904;DHT22;39812;52.430;16.936;2023-04-01T01:56:55;8.60;99.90
53904;DHT22;39812;52.430;16.936;2023-04-01T01:59:26;8.60;99.90
53904;DHT22;39812;52.430;16.936;2023-04-01T02:01:55;8.60;99.90
53904;DHT22;39812;52.430;16.936;2023-04-01T02:04:22;8.60;99.90
53904;DHT22;39812;52.430;16.936;2023-04-01T02:07:24;8.60;99.90
53904;DHT22;39812;52.430;16.936;2023-04-01T02:09:51;8.60;99.90
53904;DHT22;39812;52.430;16.936;2023-04-01T02:12:19;8.50;99.90
53904;DHT22;39812;52.430;16.936;2023-04-01T02:14:58;8.50;99.90
53904;DHT22;39812;52.430;16.936;2023-04-01T02:17:29;8.50;99.90
53904;DHT22;39812;52.430;16.936;2023-04-01T02:20:02;8.60;99.90
53904;DHT22;39812;52.430;16.936;2023-04-01T02:22:33;8.50;99.90
53904;DHT22;39812;52.430;16.936;2023-04-01T02:25:03;8.50;99.90
53904;DHT22;39812;52.430;16.936;2023-04-01T02:27:30;8.50;99.90
53904;DHT22;39812;52.430;16.936;2023-04-01T02:29:57;8.50;99.90
53904;DHT22;39812;52.430;16.936;2023-04-01T02:32:23;8.50;99.90
53904;DHT22;39812;52.430;16.936;2023-04-01T02:34:50;8.60;99.90
53904;DHT22;39812;52.430;16.936;2023-04-01T02:37:17;8.60;99.90
53904;DHT22;39812;52.430;16.936;2023-04-01T02:39:43;8.60;99.90
53904;DHT22;39812;52.430;16.936;2023-04-01T02:42:09;8.60;99.90
53904;DHT22;39812;52.430;16.936;2023-04-01T02:44:35;8.60;99.90
53904;DHT22;39812;52.430;16.936;2023-04-01T02:47:01;8.60;99.90
53904;DHT22;39812;52.430;16.936;2023-04-01T02:49:26;8.60;99.90
53904;DHT22;39812;52.430;16.936;2023-04-01T02:51:52;8.50;99.90
53904;DHT22;39812;52.430;16.936;2023-04-01T02:54:18;8.50;99.90
53904;DHT22;39812;52.430;16.936;2023-04-01T02:56:44;8.50;99.90
53904;DHT22;39812;52.430;16.936;2023-04-01T02:59:11;8.60;99.90
53904;DHT22;39812;52.430;16.936;2023-04-01T03:01:37;8.60;99.90
53904;DHT22;39812;52.430;16.936;2023-04-01T03:04:04;8.60;99.90
53904;DHT22;39812;52.430;16.936;2023-04-01T03:06:30;8.50;99.90
53904;DHT22;39812;52.430;16.936;2023-04-01T03:08:56;8.50;99.90
53904;DHT22;39812;52.430;16.936;2023-04-01T03:11:21;8.50;99.90
53904;DHT22;39812;52.430;16.936;2023-04-01T03:13:47;8.50;99.90
53904;DHT22;39812;52.430;16.936;2023-04-01T03:16:14;8.50;99.90
53904;DHT22;39812;52.430;16.936;2023-04-01T03:18:40;8.50;99.90
53904;DHT22;39812;52.430;16.936;2023-04-01T03:21:20;8.50;99.90
53904;DHT22;39812;52.430;16.936;2023-04-01T03:23:46;8.50;99.90
53904;DHT22;39812;52.430;16.936;2023-04-01T03:26:12;8.50;99.90
53904;DHT22;39812;52.430;16.936;2023-04-01T03:28:39;8.50;99.90
53904;DHT22;39812;52.430;16.936;2023-04-01T03:31:05;8.60;99.90
53904;DHT22;39812;52.430;16.936;2023-04-01T03:33:31;8.60;99.90
53904;DHT22;39812;52.430;16.936;2023-04-01T03:35:57;8.50;99.90
53904;DHT22;39812;52.430;16.936;2023-04-01T03:38:22;8.50;99.90
53904;DHT22;39812;52.430;16.936;2023-04-01T03:40:48;8.50;99.90
53904;DHT22;39812;52.430;16.936;2023-04-01T03:43:14;8.50;99.90
53904;DHT22;39812;52.430;16.936;2023-04-01T03:45:49;8.50;99.90
53904;DHT22;39812;52.430;16.936;2023-04-01T03:48:15;8.50;99.90
53904;DHT22;39812;52.430;16.936;2023-04-01T03:50:41;8.50;99.90
53904;DHT22;39812;52.430;16.936;2023-04-01T03:53:07;8.50;99.90
53904;DHT22;39812;52.430;16.936;2023-04-01T03:55:33;8.50;99.90
53904;DHT22;39812;52.430;16.936;2023-04-01T03:58:00;8.40;99.90
53904;DHT22;39812;52.430;16.936;2023-04-01T04:00:28;8.40;99.90
53904;DHT22;39812;52.430;16.936;2023-04-01T04:02:54;8.50;99.90
53904;DHT22;39812;52.430;16.936;2023-04-01T04:05:21;8.40;99.90
53904;DHT22;39812;52.430;16.936;2023-04-01T04:07:46;8.50;99.90
53904;DHT22;39812;52.430;16.936;2023-04-01T04:10:12;8.50;99.90
53904;DHT22;39812;52.430;16.936;2023-04-01T04:12:38;8.50;99.90
53904;DHT22;39812;52.430;16.936;2023-04-01T04:15:04;8.50;99.90
53904;DHT22;39812;52.430;16.936;2023-04-01T04:17:29;8.50;99.90
53904;DHT22;39812;52.430;16.936;2023-04-01T04:19:55;8.50;99.90
53904;DHT22;39812;52.430;16.936;2023-04-01T04:22:21;8.50;99.90
53904;DHT22;39812;52.430;16.936;2023-04-01T04:24:46;8.60;99.90
53904;DHT22;39812;52.430;16.936;2023-04-01T04:27:12;8.60;99.90
53904;DHT22;39812;52.430;16.936;2023-04-01T04:29:38;8.60;99.90
53904;DHT22;39812;52.430;16.936;2023-04-01T04:32:03;8.60;99.90
53904;DHT22;39812;52.430;16.936;2023-04-01T04:34:29;8.60;99.90
53904;DHT22;39812;52.430;16.936;2023-04-01T04:36:55;8.60;99.90
53904;DHT22;39812;52.430;16.936;2023-04-01T04:39:20;8.60;99.90
53904;DHT22;39812;52.430;16.936;2023-04-01T04:41:46;8.50;99.90
53904;DHT22;39812;52.430;16.936;2023-04-01T04:44:11;8.40;99.90
53904;DHT22;39812;52.430;16.936;2023-04-01T04:46:37;8.40;99.90
53904;DHT22;39812;52.430;16.936;2023-04-01T04:49:05;8.50;99.90
53904;DHT22;39812;52.430;16.936;2023-04-01T04:51:30;8.50;99.90
53904;DHT22;39812;52.430;16.936;2023-04-01T04:53:59;8.50;99.90
53904;DHT22;39812;52.430;16.936;2023-04-01T04:56:25;8.50;99.90
53904;DHT22;39812;52.430;16.936;2023-04-01T04:58:52;8.50;99.90
53904;DHT22;39812;52.430;16.936;2023-04-01T05:01:18;8.60;99.90
53904;DHT22;39812;52.430;16.936;2023-04-01T05:03:45;8.60;99.90
53904;DHT22;39812;52.430;16.936;2023-04-01T05:06:12;8.70;99.90
53904;DHT22;39812;52.430;16.936;2023-04-01T05:08:39;8.70;99.90
53904;DHT22;39812;52.430;16.936;2023-04-01T05:11:09;8.70;99.90
53904;DHT22;39812;52.430;16.936;2023-04-01T05:13:36;8.60;99.90
53904;DHT22;39812;52.430;16.936;2023-04-01T05:16:02;8.70;99.90
53904;DHT22;39812;52.430;16.936;2023-04-01T05:18:27;8.70;99.90
53904;DHT22;39812;52.430;16.936;2023-04-01T05:20:54;8.80;99.90
53904;DHT22;39812;52.430;16.936;2023-04-01T05:23:21;8.80;99.90
53904;DHT22;39812;52.430;16.936;2023-04-01T05:25:48;8.80;99.90
53904;DHT22;39812;52.430;16.936;2023-04-01T05:28:15;8.90;99.90
53904;DHT22;39812;52.430;16.936;2023-04-01T05:30:42;8.80;99.90
53904;DHT22;39812;52.430;16.936;2023-04-01T05:33:08;8.90;99.90
53904;DHT22;39812;52.430;16.936;2023-04-01T05:35:34;8.80;99.90
53904;DHT22;39812;52.430;16.936;2023-04-01T05:38:01;8.80;99.90
53904;DHT22;39812;52.430;16.936;2023-04-01T05:40:27;8.90;99.90
53904;DHT22;39812;52.430;16.936;2023-04-01T05:42:53;8.90;99.90
53904;DHT22;39812;52.430;16.936;2023-04-01T05:45:19;8.90;99.90
53904;DHT22;39812;52.430;16.936;2023-04-01T05:47:45;8.90;99.90
53904;DHT22;39812;52.430;16.936;2023-04-01T05:50:10;9.00;99.90
53904;DHT22;39812;52.430;16.936;2023-04-01T05:52:37;8.90;99.90
53904;DHT22;39812;52.430;16.936;2023-04-01T05:55:03;8.90;99.90
53904;DHT22;39812;52.430;16.936;2023-04-01T05:57:30;8.90;99.90
53904;DHT22;39812;52.430;16.936;2023-04-01T05:59:56;8.90;99.90
53904;DHT22;39812;52.430;16.936;2023-04-01T06:02:22;8.90;99.90
53904;DHT22;39812;52.430;16.936;2023-04-01T06:04:47;8.90;99.90
53904;DHT22;39812;52.430;16.936;2023-04-01T06:07:17;8.90;99.90
53904;DHT22;39812;52.430;16.936;2023-04-01T06:09:44;9.00;99.90
53904;DHT22;39812;52.430;16.936;2023-04-01T06:26:37;9.00;99.90
53904;DHT22;39812;52.430;16.936;2023-04-01T06:34:53;9.00;99.90
53904;DHT22;39812;52.430;16.936;2023-04-01T06:38:05;9.00;99.90
53904;DHT22;39812;52.430;16.936;2023-04-01T06:46:43;9.00;99.90
53904;DHT22;39812;52.430;16.936;2023-04-01T06:52:11;9.00;99.90
53904;DHT22;39812;52.430;16.936;2023-04-01T06:54:42;9.10;99.90
53904;DHT22;39812;52.430;16.936;2023-04-01T06:57:32;9.10;99.90
53904;DHT22;39812;52.430;16.936;2023-04-01T07:00:02;9.10;99.90
53904;DHT22;39812;52.430;16.936;2023-04-01T07:02:48;9.10;99.90
53904;DHT22;39812;52.430;16.936;2023-04-01T07:05:19;9.10;99.90
53904;DHT22;39812;52.430;16.936;2023-04-01T07:07:48;9.20;99.90
53904;DHT22;39812;52.430;16.936;2023-04-01T07:13:05;9.30;99.90
53904;DHT22;39812;52.430;16.936;2023-04-01T07:15:40;9.40;99.90
53904;DHT22;39812;52.430;16.936;2023-04-01T07:18:21;9.30;99.90
53904;DHT22;39812;52.430;16.936;2023-04-01T07:20:49;9.30;99.90
53904;DHT22;39812;52.430;16.936;2023-04-01T07:23:24;9.40;99.90
53904;DHT22;39812;52.430;16.936;2023-04-01T07:25:55;9.40;99.90
53904;DHT22;39812;52.430;16.936;2023-04-01T07:28:23;9.40;99.90
53904;DHT22;39812;52.430;16.936;2023-04-01T07:31:05;9.40;99.90
53904;DHT22;39812;52.430;16.936;2023-04-01T07:39:13;9.80;99.90
53904;DHT22;39812;52.430;16.936;2023-04-01T07:44:25;9.90;99.90
53904;DHT22;39812;52.430;16.936;2023-04-01T07:50:08;10.30;99.90
53904;DHT22;39812;52.430;16.936;2023-04-01T07:58:57;11.10;99.90
53904;DHT22;39812;52.430;16.936;2023-04-01T08:01:34;11.50;99.90
53904;DHT22;39812;52.430;16.936;2023-04-01T08:07:22;12.00;99.90
53904;DHT22;39812;52.430;16.936;2023-04-01T08:15:23;11.90;99.90
53904;DHT22;39812;52.430;16.936;2023-04-01T08:18:31;12.10;99.90
53904;DHT22;39812;52.430;16.936;2023-04-01T08:21:04;12.10;99.90
53904;DHT22;39812;52.430;16.936;2023-04-01T08:23:33;11.90;99.90
53904;DHT22;39812;52.430;16.936;2023-04-01T08:26:26;11.70;99.90
53904;DHT22;39812;52.430;16.936;2023-04-01T08:29:13;11.30;99.90
53904;DHT22;39812;52.430;16.936;2023-04-01T08:34:24;10.90;99.90
53904;DHT22;39812;52.430;16.936;2023-04-01T08:36:57;10.90;99.90
53904;DHT22;39812;52.430;16.936;2023-04-01T08:39:37;10.90;99.90
53904;DHT22;39812;52.430;16.936;2023-04-01T08:55:40;11.40;99.90
53904;DHT22;39812;52.430;16.936;2023-04-01T09:04:14;11.50;99.90
53904;DHT22;39812;52.430;16.936;2023-04-01T09:09:56;11.80;99.90
53904;DHT22;39812;52.430;16.936;2023-04-01T09:18:06;11.90;99.90
53904;DHT22;39812;52.430;16.936;2023-04-01T09:21:03;12.20;99.90
53904;DHT22;39812;52.430;16.936;2023-04-01T09:38:21;11.40;99.90
53904;DHT22;39812;52.430;16.936;2023-04-01T09:40:56;11.10;99.90
53904;DHT22;39812;52.430;16.936;2023-04-01T09:43:28;10.90;99.90
53904;DHT22;39812;52.430;16.936;2023-04-01T09:54:30;10.40;99.90
53904;DHT22;39812;52.430;16.936;2023-04-01T11:01:05;12.00;99.90
53904;DHT22;39812;52.430;16.936;2023-04-01T11:29:09;11.40;99.90
53904;DHT22;39812;52.430;16.936;2023-04-01T11:31:46;11.40;99.90
53904;DHT22;39812;52.430;16.936;2023-04-01T11:34:42;11.30;99.90
53904;DHT22;39812;52.430;16.936;2023-04-01T11:43:01;11.40;99.90
53904;DHT22;39812;52.430;16.936;2023-04-01T11:45:58;11.20;99.90
53904;DHT22;39812;52.430;16.936;2023-04-01T11:48:33;11.00;99.90
53904;DHT22;39812;52.430;16.936;2023-04-01T11:56:53;9.90;99.90
53904;DHT22;39812;52.430;16.936;2023-04-01T11:59:44;9.80;99.90
53904;DHT22;39812;52.430;16.936;2023-04-01T12:02:20;9.80;99.90
53904;DHT22;39812;52.430;16.936;2023-04-01T12:07:56;9.70;99.90
53904;DHT22;39812;52.430;16.936;2023-04-01T12:10:55;9.60;99.90
53904;DHT22;39812;52.430;16.936;2023-04-01T12:13:35;9.60;99.90
53904;DHT22;39812;52.430;16.936;2023-04-01T12:16:21;9.60;99.90
53904;DHT22;39812;52.430;16.936;2023-04-01T12:35:17;10.20;99.90
53904;DHT22;39812;52.430;16.936;2023-04-01T12:40:45;10.30;99.90
53904;DHT22;39812;52.430;16.936;2023-04-01T12:46:13;10.30;99.90
53904;DHT22;39812;52.430;16.936;2023-04-01T12:52:09;10.10;99.90
53904;DHT22;39812;52.430;16.936;2023-04-01T13:05:56;10.20;99.90
53904;DHT22;39812;52.430;16.936;2023-04-01T13:08:54;10.20;99.90
53904;DHT22;39812;52.430;16.936;2023-04-01T13:20:00;10.20;99.90
53904;DHT22;39812;52.430;16.936;2023-04-01T13:22:51;10.20;99.90
53904;DHT22;39812;52.430;16.936;2023-04-01T13:26:09;10.30;99.90
53904;DHT22;39812;52.430;16.936;2023-04-01T13:42:18;9.90;99.90
53904;DHT22;39812;52.430;16.936;2023-04-01T14:00:03;10.00;99.90
53904;DHT22;39812;52.430;16.936;2023-04-01T14:08:36;10.50;99.90
53904;DHT22;39812;52.430;16.936;2023-04-01T14:11:17;11.70;99.90
53904;DHT22;39812;52.430;16.936;2023-04-01T14:16:53;13.10;99.90
53904;DHT22;39812;52.430;16.936;2023-04-01T14:19:44;13.90;99.90
53904;DHT22;39812;52.430;16.936;2023-04-01T14:22:42;14.10;99.90
53904;DHT22;39812;52.430;16.936;2023-04-01T14:28:37;12.80;99.90
53904;DHT22;39812;52.430;16.936;2023-04-01T14:48:59;10.20;99.90
53904;DHT22;39812;52.430;16.936;2023-04-01T14:51:34;10.10;99.90
53904;DHT22;39812;52.430;16.936;2023-04-01T14:54:16;9.90;99.90
53904;DHT22;39812;52.430;16.936;2023-04-01T14:59:48;9.90;99.90
53904;DHT22;39812;52.430;16.936;2023-04-01T15:08:11;9.80;99.90
53904;DHT22;39812;52.430;16.936;2023-04-01T15:25:25;9.20;99.90
53904;DHT22;39812;52.430;16.936;2023-04-01T15:30:36;9.00;99.90
53904;DHT22;39812;52.430;16.936;2023-04-01T15:33:20;8.90;99.90
53904;DHT22;39812;52.430;16.936;2023-04-01T15:35:57;8.90;99.90
53904;DHT22;39812;52.430;16.936;2023-04-01T15:38:46;8.90;99.90
53904;DHT22;39812;52.430;16.936;2023-04-01T15:43:50;8.80;99.90
53904;DHT22;39812;52.430;16.936;2023-04-01T15:49:43;8.70;99.90
53904;DHT22;39812;52.430;16.936;2023-04-01T15:52:43;8.70;99.90
53904;DHT22;39812;52.430;16.936;2023-04-01T15:58:17;8.80;99.90
53904;DHT22;39812;52.430;16.936;2023-04-01T16:01:14;8.80;99.90
53904;DHT22;39812;52.430;16.936;2023-04-01T16:17:01;8.70;99.90
53904;DHT22;39812;52.430;16.936;2023-04-01T16:22:22;8.50;99.90
53904;DHT22;39812;52.430;16.936;2023-04-01T16:27:54;8.40;99.90
53904;DHT22;39812;52.430;16.936;2023-04-01T16:38:41;8.10;99.90
53904;DHT22;39812;52.430;16.936;2023-04-01T16:43:48;8.00;99.90
53904;DHT22;39812;52.430;16.936;2023-04-01T16:46:31;7.90;99.90
53904;DHT22;39812;52.430;16.936;2023-04-01T16:54:35;7.90;99.90
53904;DHT22;39812;52.430;16.936;2023-04-01T17:02:20;8.00;99.90
53904;DHT22;39812;52.430;16.936;2023-04-01T17:04:54;8.00;99.90
53904;DHT22;39812;52.430;16.936;2023-04-01T17:07:29;8.00;99.90
53904;DHT22;39812;52.430;16.936;2023-04-01T17:10:33;8.00;99.90
53904;DHT22;39812;52.430;16.936;2023-04-01T17:23:28;7.50;99.90
53904;DHT22;39812;52.430;16.936;2023-04-01T17:36:35;7.30;99.90
53904;DHT22;39812;52.430;16.936;2023-04-01T17:42:30;7.30;99.90
53904;DHT22;39812;52.430;16.936;2023-04-01T17:45:09;7.30;99.90
53904;DHT22;39812;52.430;16.936;2023-04-01T17:47:41;7.30;99.90
53904;DHT22;39812;52.430;16.936;2023-04-01T18:12:33;6.80;99.90
53904;DHT22;39812;52.430;16.936;2023-04-01T18:15:31;6.70;99.90
53904;DHT22;39812;52.430;16.936;2023-04-01T18:21:03;6.60;99.90
53904;DHT22;39812;52.430;16.936;2023-04-01T18:24:30;6.50;99.90
53904;DHT22;39812;52.430;16.936;2023-04-01T18:26:31;6.50;99.90
53904;DHT22;39812;52.430;16.936;2023-04-01T18:37:25;6.50;99.90
53904;DHT22;39812;52.430;16.936;2023-04-01T18:40:10;6.50;99.90
53904;DHT22;39812;52.430;16.936;2023-04-01T18:45:43;6.40;99.90
53904;DHT22;39812;52.430;16.936;2023-04-01T18:51:08;6.20;99.90
53904;DHT22;39812;52.430;16.936;2023-04-01T18:56:11;6.10;99.90
53904;DHT22;39812;52.430;16.936;2023-04-01T18:59:02;6.10;99.90
53904;DHT22;39812;52.430;16.936;2023-04-01T19:01:43;6.10;99.90
53904;DHT22;39812;52.430;16.936;2023-04-01T19:04:16;6.00;99.90
53904;DHT22;39812;52.430;16.936;2023-04-01T19:06:55;6.10;99.90
53904;DHT22;39812;52.430;16.936;2023-04-01T19:09:29;6.00;99.90
53904;DHT22;39812;52.430;16.936;2023-04-01T19:15:14;6.00;99.90
53904;DHT22;39812;52.430;16.936;2023-04-01T19:20:50;5.90;99.90
53904;DHT22;39812;52.430;16.936;2023-04-01T19:29:26;5.70;99.90
53904;DHT22;39812;52.430;16.936;2023-04-01T19:32:12;5.70;99.90
53904;DHT22;39812;52.430;16.936;2023-04-01T19:35:03;5.70;99.90
53904;DHT22;39812;52.430;16.936;2023-04-01T19:37:40;5.70;99.90
53904;DHT22;39812;52.430;16.936;2023-04-01T19:45:45;5.60;99.90
53904;DHT22;39812;52.430;16.936;2023-04-01T19:50:59;5.60;99.90
53904;DHT22;39812;52.430;16.936;2023-04-01T19:56:22;5.60;99.90
53904;DHT22;39812;52.430;16.936;2023-04-01T20:01:48;5.60;99.90
53904;DHT22;39812;52.430;16.936;2023-04-01T20:09:57;5.50;99.90
53904;DHT22;39812;52.430;16.936;2023-04-01T20:15:30;5.50;99.90
53904;DHT22;39812;52.430;16.936;2023-04-01T20:18:00;5.40;99.90
53904;DHT22;39812;52.430;16.936;2023-04-01T20:20:29;5.40;99.90
53904;DHT22;39812;52.430;16.936;2023-04-01T20:23:32;5.30;99.90
53904;DHT22;39812;52.430;16.936;2023-04-01T20:25:59;5.20;99.90
53904;DHT22;39812;52.430;16.936;2023-04-01T20:28:49;5.20;99.90
53904;DHT22;39812;52.430;16.936;2023-04-01T20:34:59;5.20;99.90
53904;DHT22;39812;52.430;16.936;2023-04-01T20:37:21;5.20;99.90
53904;DHT22;39812;52.430;16.936;2023-04-01T20:42:34;5.20;99.90
53904;DHT22;39812;52.430;16.936;2023-04-01T20:45:34;5.20;99.90
53904;DHT22;39812;52.430;16.936;2023-04-01T20:56:49;5.20;99.90
53904;DHT22;39812;52.430;16.936;2023-04-01T20:59:51;5.20;99.90
53904;DHT22;39812;52.430;16.936;2023-04-01T21:13:03;5.20;99.90
53904;DHT22;39812;52.430;16.936;2023-04-01T21:34:41;4.70;99.90
53904;DHT22;39812;52.430;16.936;2023-04-01T21:37:31;4.80;99.90
53904;DHT22;39812;52.430;16.936;2023-04-01T21:50:53;4.60;99.90
53904;DHT22;39812;52.430;16.936;2023-04-01T22:07:16;4.60;99.90
53904;DHT22;39812;52.430;16.936;2023-04-01T22:17:53;4.60;99.90
53904;DHT22;39812;52.430;16.936;2023-04-01T22:20:28;4.60;99.90
53904;DHT22;39812;52.430;16.936;2023-04-01T22:23:06;4.60;99.90
53904;DHT22;39812;52.430;16.936;2023-04-01T22:26:23;4.60;99.90
53904;DHT22;39812;52.430;16.936;2023-04-01T22:28:43;4.60;99.90
53904;DHT22;39812;52.430;16.936;2023-04-01T22:31:15;4.60;99.90
53904;DHT22;39812;52.430;16.936;2023-04-01T22:36:50;4.60;99.90
53904;DHT22;39812;52.430;16.936;2023-04-01T22:45:15;4.60;99.90
53904;DHT22;39812;52.430;16.936;2023-04-01T22:48:08;4.50;99.90
53904;DHT22;39812;52.430;16.936;2023-04-01T22:55:46;4.40;99.90
53904;DHT22;39812;52.430;16.936;2023-04-01T22:58:41;4.40;99.90
53904;DHT22;39812;52.430;16.936;2023-04-01T23:01:14;4.40;99.90
53904;DHT22;39812;52.430;16.936;2023-04-01T23:03:44;4.50;99.90
53904;DHT22;39812;52.430;16.936;2023-04-01T23:06:17;4.40;99.90
53904;DHT22;39812;52.430;16.936;2023-04-01T23:11:35;4.40;99.90
53904;DHT22;39812;52.430;16.936;2023-04-01T23:38:13;4.20;99.90
53904;DHT22;39812;52.430;16.936;2023-04-01T23:40:40;4.20;99.90
53904;DHT22;39812;52.430;16.936;2023-04-01T23:43:26;4.20;99.90
53904;DHT22;39812;52.430;16.936;2023-04-01T23:45:56;4.20;99.90
53904;DHT22;39812;52.430;16.936;2023-04-01T23:48:30;4.20;99.90
53904;DHT22;39812;52.430;16.936;2023-04-01T23:50:57;4.20;99.90
53904;DHT22;39812;52.430;16.936;2023-04-01T23:53:25;4.20;99.90
53904;DHT22;39812;52.430;16.936;2023-04-01T23:55:54;4.10;99.90
53904;DHT22;39812;52.430;16.936;2023-04-01T23:58:25;4.10;99.90
